Time;durP1;ratioP1;P1;durP2;ratioP2;P2;SDS_P1;SDS_P2;PMS_P1;PMS_P2;Temp;Humidity;BMP_temperature;BMP_pressure;BME280_temperature;BME280_humidity;BME280_pressure;Samples;Min_cycle;Max_cycle;Signal;HPM_P1;HPM_P2
2022/05/30 00:00:36;;;;;;;3.10;1.20;;;7.40;99.90;;;;;;4959267;28;20039;-71
2022/05/30 00:03:01;;;;;;;4.97;1.20;;;7.40;99.90;;;;;;4948701;28;20082;-69
2022/05/30 00:05:30;;;;;;;3.17;1.10;;;7.40;99.90;;;;;;4993500;23;20042;-74
2022/05/30 00:07:56;;;;;;;2.83;1.42;;;7.40;99.90;;;;;;5011028;28;20141;-75
2022/05/30 00:10:22;;;;;;;3.05;1.40;;;7.40;99.90;;;;;;5010776;28;20125;-75
2022/05/30 00:12:47;;;;;;;3.25;1.35;;;7.40;99.90;;;;;;4998035;28;20033;-75
2022/05/30 00:15:16;;;;;;;3.08;1.30;;;7.40;99.90;;;;;;4996544;28;20745;-75
2022/05/30 00:17:41;;;;;;;3.08;1.48;;;7.40;99.90;;;;;;5006739;28;20088;-76
2022/05/30 00:20:08;;;;;;;3.63;1.40;;;7.40;99.90;;;;;;5006407;28;20053;-75
2022/05/30 00:22:34;;;;;;;4.35;1.40;;;7.40;99.90;;;;;;4990834;28;20026;-74
2022/05/30 00:24:59;;;;;;;4.32;1.50;;;7.30;99.90;;;;;;5008091;28;20516;-74
2022/05/30 00:27:25;;;;;;;5.00;2.58;;;7.30;99.90;;;;;;5008302;28;20065;-74
2022/05/30 00:29:51;;;;;;;2.03;1.30;;;7.30;99.90;;;;;;5008636;28;20093;-74
2022/05/30 00:32:20;;;;;;;5.57;1.40;;;7.30;99.90;;;;;;5010916;28;20111;-74
2022/05/30 00:34:46;;;;;;;2.80;1.50;;;7.20;99.90;;;;;;5006461;28;20107;-74
2022/05/30 00:37:11;;;;;;;6.68;1.58;;;7.20;99.90;;;;;;5013336;28;20475;-75
2022/05/30 00:39:37;;;;;;;4.32;1.95;;;7.10;99.90;;;;;;5005819;28;20035;-75
2022/05/30 00:42:31;;;;;;;3.60;1.70;;;7.10;99.90;;;;;;5008748;28;20022;-74
2022/05/30 00:44:57;;;;;;;3.45;1.70;;;7.10;99.90;;;;;;4989496;28;20038;-74
2022/05/30 00:47:25;;;;;;;4.53;1.95;;;7.10;99.90;;;;;;4985682;28;20034;-74
2022/05/30 00:49:52;;;;;;;4.22;1.50;;;7.00;99.90;;;;;;5005159;28;20117;-75
2022/05/30 00:52:39;;;;;;;4.45;2.00;;;7.00;99.90;;;;;;5005421;28;20025;-74
2022/05/30 00:55:14;;;;;;;3.90;1.73;;;7.00;99.90;;;;;;5011768;28;20041;-74
2022/05/30 00:57:42;;;;;;;5.47;1.73;;;6.90;99.90;;;;;;4989888;28;20445;-74
2022/05/30 01:00:19;;;;;;;2.80;1.55;;;6.90;99.90;;;;;;5006564;28;20037;-74
2022/05/30 01:02:45;;;;;;;5.85;1.50;;;6.90;99.90;;;;;;4992230;28;20026;-74
2022/05/30 01:08:01;;;;;;;2.08;1.55;;;7.00;99.90;;;;;;5010045;28;20548;-74
2022/05/30 01:10:27;;;;;;;7.07;1.33;;;6.90;99.90;;;;;;5006442;28;20350;-74
2022/05/30 01:12:55;;;;;;;3.88;1.60;;;6.80;99.90;;;;;;5008262;28;20037;-75
2022/05/30 01:15:28;;;;;;;4.07;1.67;;;6.80;99.90;;;;;;4988213;28;20587;-74
2022/05/30 01:18:15;;;;;;;4.70;1.50;;;6.70;99.90;;;;;;5008477;28;20026;-75
2022/05/30 01:20:49;;;;;;;4.32;1.52;;;6.70;99.90;;;;;;5006190;28;20022;-74
2022/05/30 01:23:40;;;;;;;6.07;1.40;;;6.70;99.90;;;;;;5008385;28;20414;-74
2022/05/30 01:26:33;;;;;;;5.00;1.17;;;6.70;99.90;;;;;;5006826;28;20026;-74
2022/05/30 01:29:05;;;;;;;2.58;1.17;;;6.70;99.90;;;;;;5004851;28;20021;-74
2022/05/30 01:31:31;;;;;;;1.98;1.30;;;6.70;99.90;;;;;;5008922;28;20041;-74
2022/05/30 01:33:57;;;;;;;6.57;1.48;;;6.60;99.90;;;;;;5010134;28;20036;-75
2022/05/30 01:36:26;;;;;;;2.20;1.13;;;6.70;99.90;;;;;;5008525;28;20470;-74
2022/05/30 01:38:52;;;;;;;2.03;1.20;;;6.70;99.90;;;;;;5009743;28;20040;-75
2022/05/30 01:41:18;;;;;;;3.10;1.33;;;6.70;99.90;;;;;;5007431;28;20022;-74
2022/05/30 01:43:45;;;;;;;3.95;1.63;;;6.70;99.90;;;;;;5004844;28;20404;-75
2022/05/30 01:46:13;;;;;;;4.03;1.48;;;6.70;99.90;;;;;;5010182;28;20175;-75
2022/05/30 01:48:39;;;;;;;3.38;1.38;;;6.70;99.90;;;;;;5007509;28;20033;-75
2022/05/30 01:51:05;;;;;;;3.50;1.40;;;6.60;99.90;;;;;;5008246;28;20569;-75
2022/05/30 01:53:30;;;;;;;1.70;1.00;;;6.60;99.90;;;;;;5009422;28;20109;-74
2022/05/30 01:55:56;;;;;;;1.70;1.27;;;6.50;99.90;;;;;;4989664;28;21516;-74
2022/05/30 01:58:22;;;;;;;3.83;1.60;;;6.50;99.90;;;;;;5004865;28;20386;-74
2022/05/30 02:00:48;;;;;;;3.00;1.67;;;6.60;99.90;;;;;;5007122;28;20030;-74
2022/05/30 02:03:14;;;;;;;4.60;1.88;;;6.60;99.90;;;;;;5006682;28;20030;-74
2022/05/30 02:05:40;;;;;;;2.97;2.03;;;6.60;99.90;;;;;;5006926;28;20060;-74
2022/05/30 02:08:07;;;;;;;3.72;2.75;;;6.60;99.90;;;;;;5004522;28;20053;-74
2022/05/30 02:10:34;;;;;;;5.35;2.72;;;6.50;99.90;;;;;;5002506;28;20073;-75
2022/05/30 02:12:59;;;;;;;5.43;2.20;;;6.50;99.90;;;;;;5006713;28;20034;-75
2022/05/30 02:15:25;;;;;;;5.70;2.38;;;6.40;99.90;;;;;;4988573;28;20140;-74
2022/05/30 02:17:52;;;;;;;4.55;1.73;;;6.30;99.90;;;;;;5004077;28;20034;-74
2022/05/30 02:20:18;;;;;;;3.40;1.60;;;6.30;99.90;;;;;;5006585;28;20466;-74
2022/05/30 02:22:45;;;;;;;3.22;1.58;;;6.30;99.90;;;;;;5005058;28;20128;-74
2022/05/30 02:25:12;;;;;;;5.07;1.90;;;6.30;99.90;;;;;;5004242;28;20366;-75
2022/05/30 02:27:38;;;;;;;3.70;1.73;;;6.20;99.90;;;;;;4985620;28;20083;-76
2022/05/30 02:30:05;;;;;;;2.00;1.40;;;6.20;99.90;;;;;;5004949;28;20030;-75
2022/05/30 02:32:31;;;;;;;4.25;1.42;;;6.20;99.90;;;;;;5003177;28;20105;-76
2022/05/30 02:37:40;;;;;;;;;;;6.10;99.90;;;;;;5007521;28;20036;-75
2022/05/30 02:40:07;;;;;;;3.97;1.40;;;6.00;99.90;;;;;;5009582;28;19913;-76
2022/05/30 02:42:32;;;;;;;6.15;1.60;;;5.90;99.90;;;;;;5005153;28;20037;-77
2022/05/30 02:44:59;;;;;;;6.20;1.73;;;5.90;99.90;;;;;;5007954;28;20072;-76
2022/05/30 02:47:24;;;;;;;3.65;1.80;;;5.90;99.90;;;;;;5006864;28;20517;-76
2022/05/30 02:49:50;;;;;;;6.03;1.48;;;5.90;99.90;;;;;;5007577;28;20034;-76
2022/05/30 02:52:16;;;;;;;3.30;1.30;;;5.90;99.90;;;;;;5020451;28;20068;-76
2022/05/30 02:54:41;;;;;;;2.83;1.30;;;5.90;99.90;;;;;;4986541;28;20060;-75
2022/05/30 02:57:08;;;;;;;2.53;1.40;;;5.90;99.90;;;;;;4990246;28;20108;-75
2022/05/30 02:59:34;;;;;;;1.83;1.42;;;5.90;99.90;;;;;;5007234;28;20023;-76
2022/05/30 03:02:00;;;;;;;3.08;1.35;;;5.90;99.90;;;;;;5011744;28;20076;-75
2022/05/30 03:04:25;;;;;;;3.22;1.45;;;5.90;99.90;;;;;;5010215;28;20033;-76
2022/05/30 03:06:51;;;;;;;3.05;1.55;;;5.90;99.90;;;;;;5005433;28;20103;-75
2022/05/30 03:09:18;;;;;;;4.80;1.60;;;5.80;99.90;;;;;;5009814;28;20049;-75
2022/05/30 03:11:44;;;;;;;2.08;1.27;;;5.80;99.90;;;;;;4993921;28;20026;-75
2022/05/30 03:14:10;;;;;;;2.95;1.80;;;5.80;99.90;;;;;;5010143;28;20121;-74
2022/05/30 03:16:36;;;;;;;3.63;1.83;;;5.80;99.90;;;;;;5011190;28;20033;-74
2022/05/30 03:19:01;;;;;;;4.28;1.70;;;5.80;99.90;;;;;;5012107;28;20080;-75
2022/05/30 03:21:27;;;;;;;2.53;1.23;;;5.70;99.90;;;;;;5008188;28;20037;-75
2022/05/30 03:23:53;;;;;;;3.13;1.58;;;5.70;99.90;;;;;;5007682;28;20380;-76
2022/05/30 03:26:19;;;;;;;3.35;1.60;;;5.70;99.90;;;;;;5010721;28;20481;-76
2022/05/30 03:28:44;;;;;;;3.88;1.45;;;5.70;99.90;;;;;;5008150;28;20630;-76
2022/05/30 03:31:10;;;;;;;4.60;1.65;;;5.70;99.90;;;;;;5010637;28;20076;-76
2022/05/30 03:33:37;;;;;;;2.92;1.67;;;5.70;99.90;;;;;;5010645;28;20032;-75
2022/05/30 03:36:10;;;;;;;3.65;1.75;;;5.70;99.90;;;;;;4992334;28;20041;-75
2022/05/30 03:38:36;;;;;;;3.88;1.63;;;5.60;99.90;;;;;;5011873;28;20025;-76
2022/05/30 03:41:02;;;;;;;3.22;1.70;;;5.60;99.90;;;;;;5022560;28;20037;-76
2022/05/30 03:43:27;;;;;;;3.13;1.42;;;5.60;99.90;;;;;;5009704;28;20022;-75
2022/05/30 03:45:53;;;;;;;4.38;1.27;;;5.60;99.90;;;;;;4992472;28;20068;-75
2022/05/30 03:48:21;;;;;;;2.70;1.63;;;5.60;99.90;;;;;;5006892;28;20022;-76
2022/05/30 03:50:48;;;;;;;2.97;1.77;;;5.60;99.90;;;;;;5004147;28;20084;-76
2022/05/30 03:53:14;;;;;;;4.75;1.63;;;5.60;99.90;;;;;;5007048;28;20429;-75
2022/05/30 03:55:42;;;;;;;2.35;1.48;;;5.60;99.90;;;;;;5005629;28;20557;-73
2022/05/30 03:58:10;;;;;;;3.42;1.88;;;5.60;99.90;;;;;;5009984;28;20022;-73
2022/05/30 04:00:38;;;;;;;5.60;1.70;;;5.70;99.90;;;;;;4993695;28;20037;-72
2022/05/30 04:03:04;;;;;;;6.13;1.85;;;5.70;99.90;;;;;;5013998;28;20075;-72
2022/05/30 04:05:30;;;;;;;3.22;1.77;;;5.80;99.90;;;;;;4990010;28;20907;-73
2022/05/30 04:07:57;;;;;;;5.70;1.42;;;5.80;99.90;;;;;;5005092;28;20030;-74
2022/05/30 04:10:24;;;;;;;4.13;1.90;;;5.80;99.90;;;;;;5011554;28;20106;-74
2022/05/30 04:12:50;;;;;;;4.60;1.50;;;5.80;99.90;;;;;;5011318;28;20041;-74
2022/05/30 04:15:19;;;;;;;3.95;2.00;;;5.80;99.90;;;;;;5009638;28;20045;-73
2022/05/30 04:17:45;;;;;;;4.15;1.30;;;5.80;99.90;;;;;;5019782;28;20048;-73
2022/05/30 04:20:11;;;;;;;2.75;1.58;;;5.90;99.90;;;;;;4989550;28;20052;-73
2022/05/30 04:22:37;;;;;;;2.25;1.50;;;5.90;99.90;;;;;;4995226;28;20030;-73
2022/05/30 04:25:03;;;;;;;2.60;1.63;;;6.10;99.90;;;;;;5012986;28;20092;-73
2022/05/30 04:27:29;;;;;;;2.25;1.35;;;6.10;99.90;;;;;;5013754;28;20033;-72
2022/05/30 04:29:54;;;;;;;3.65;2.05;;;6.40;99.90;;;;;;5011836;28;20089;-72
2022/05/30 04:32:20;;;;;;;2.45;1.50;;;6.90;99.90;;;;;;4992619;28;20022;-73
2022/05/30 04:34:46;;;;;;;3.08;1.38;;;7.20;99.90;;;;;;5017386;28;20060;-74
2022/05/30 04:37:12;;;;;;;6.05;1.77;;;7.30;99.90;;;;;;5020882;28;20061;-74
2022/05/30 04:39:38;;;;;;;6.18;1.48;;;7.40;99.90;;;;;;5016711;28;20053;-74
2022/05/30 04:42:04;;;;;;;4.72;1.88;;;7.30;99.90;;;;;;4995151;28;20092;-74
2022/05/30 04:44:30;;;;;;;11.20;3.58;;;7.30;99.90;;;;;;4994074;28;20049;-74
2022/05/30 04:46:58;;;;;;;10.32;2.20;;;7.30;99.90;;;;;;4989489;28;20525;-74
2022/05/30 04:49:24;;;;;;;7.95;3.22;;;7.30;99.90;;;;;;5005663;28;20025;-74
2022/05/30 04:51:50;;;;;;;11.73;3.90;;;7.40;99.90;;;;;;5011572;28;20412;-74
2022/05/30 04:54:17;;;;;;;11.75;3.40;;;7.50;99.90;;;;;;5007425;28;20033;-73
2022/05/30 04:56:43;;;;;;;4.05;2.22;;;7.70;99.90;;;;;;5006151;28;20041;-74
2022/05/30 04:59:09;;;;;;;7.28;2.72;;;7.90;99.90;;;;;;5006258;28;20030;-72
2022/05/30 05:01:36;;;;;;;4.00;2.13;;;8.10;99.90;;;;;;4988182;28;20474;-72
2022/05/30 05:04:04;;;;;;;4.07;1.63;;;8.30;99.90;;;;;;5002091;28;20161;-72
2022/05/30 05:06:30;;;;;;;4.75;2.30;;;8.50;99.90;;;;;;5005014;28;20030;-72
2022/05/30 05:09:25;;;;;;;10.63;2.70;;;8.70;99.90;;;;;;5010000;28;20030;-73
2022/05/30 05:11:50;;;;;;;;;;;8.90;99.90;;;;;;5002867;28;20095;-70
2022/05/30 05:14:16;;;;;;;4.18;1.83;;;9.10;99.90;;;;;;4988823;28;19913;-71
2022/05/30 05:16:42;;;;;;;3.67;1.80;;;9.30;99.90;;;;;;5006097;28;20038;-71
2022/05/30 05:19:08;;;;;;;8.32;1.98;;;9.50;99.90;;;;;;4987014;28;20478;-71
2022/05/30 05:21:40;;;;;;;4.40;1.73;;;9.60;99.90;;;;;;5003701;28;20064;-71
2022/05/30 05:24:07;;;;;;;2.08;1.35;;;9.80;99.90;;;;;;5001549;28;20030;-74
2022/05/30 05:26:33;;;;;;;6.97;1.75;;;9.90;99.90;;;;;;5009642;28;20060;-71
2022/05/30 05:28:59;;;;;;;4.57;2.10;;;10.00;99.90;;;;;;5004267;28;20053;-73
2022/05/30 05:31:33;;;;;;;4.25;2.17;;;10.00;99.90;;;;;;4995328;28;20044;-74
2022/05/30 05:33:59;;;;;;;2.05;1.63;;;10.10;99.90;;;;;;4987617;28;20030;-74
2022/05/30 05:36:27;;;;;;;3.55;2.00;;;10.10;99.90;;;;;;4990314;28;20565;-73
2022/05/30 05:38:53;;;;;;;3.08;1.90;;;10.10;99.90;;;;;;5003282;28;20022;-73
2022/05/30 05:41:21;;;;;;;3.97;2.03;;;10.20;99.90;;;;;;5009853;28;20538;-73
2022/05/30 05:43:47;;;;;;;4.72;2.22;;;10.20;99.90;;;;;;5008803;28;20088;-73
2022/05/30 05:46:15;;;;;;;5.13;2.35;;;10.30;99.90;;;;;;5004642;28;20154;-72
2022/05/30 05:48:41;;;;;;;4.65;2.42;;;10.40;99.90;;;;;;4997042;28;20422;-73
2022/05/30 05:51:06;;;;;;;4.03;2.05;;;10.50;99.90;;;;;;4998079;28;20022;-73
2022/05/30 05:53:32;;;;;;;3.58;2.28;;;10.60;99.90;;;;;;5003787;28;20080;-74
2022/05/30 05:55:58;;;;;;;6.60;2.40;;;10.70;99.90;;;;;;5002876;28;20029;-73
2022/05/30 05:58:23;;;;;;;5.15;2.55;;;10.70;99.90;;;;;;4998247;28;20030;-73
2022/05/30 06:00:49;;;;;;;5.15;2.38;;;10.80;99.90;;;;;;4983077;28;20048;-73
2022/05/30 06:03:15;;;;;;;5.13;2.10;;;10.90;99.90;;;;;;4999073;28;20100;-72
2022/05/30 06:05:40;;;;;;;6.20;2.55;;;10.90;99.90;;;;;;5009746;28;20034;-74
2022/05/30 06:08:07;;;;;;;6.03;2.42;;;10.90;99.90;;;;;;5006451;28;20022;-74
2022/05/30 06:11:04;;;;;;;3.70;1.95;;;11.00;99.90;;;;;;5007868;28;20040;-73
2022/05/30 06:13:19;;;;;;;4.38;2.10;;;11.00;99.90;;;;;;5010570;28;20030;-74
2022/05/30 06:15:44;;;;;;;5.35;2.33;;;11.00;99.90;;;;;;5007916;28;20026;-74
2022/05/30 06:18:10;;;;;;;5.05;2.40;;;11.10;99.90;;;;;;5010091;28;20025;-74
2022/05/30 06:20:35;;;;;;;3.45;2.15;;;11.20;99.90;;;;;;5010370;28;20478;-73
2022/05/30 06:23:01;;;;;;;5.13;1.75;;;11.30;99.90;;;;;;5007121;28;20037;-72
2022/05/30 06:25:27;;;;;;;3.60;2.28;;;11.40;99.90;;;;;;5001368;28;20026;-73
2022/05/30 06:27:52;;;;;;;3.90;1.77;;;11.50;99.90;;;;;;4948258;28;20038;-74
2022/05/30 06:30:18;;;;;;;3.17;1.73;;;11.60;99.90;;;;;;5004114;28;20084;-72
2022/05/30 06:32:44;;;;;;;3.88;2.22;;;11.70;99.90;;;;;;4990168;28;20378;-73
2022/05/30 06:35:09;;;;;;;3.50;2.10;;;11.70;99.40;;;;;;5003567;28;20490;-74
2022/05/30 06:37:35;;;;;;;4.10;2.20;;;11.70;99.30;;;;;;5002889;28;20045;-74
2022/05/30 06:40:01;;;;;;;4.38;2.10;;;11.70;99.60;;;;;;5006281;28;20049;-72
2022/05/30 06:42:28;;;;;;;5.53;2.10;;;11.70;99.20;;;;;;4986779;28;20156;-73
2022/05/30 06:44:53;;;;;;;4.57;2.17;;;11.70;99.20;;;;;;4991557;28;20117;-73
2022/05/30 06:47:19;;;;;;;4.53;2.40;;;11.90;98.90;;;;;;5010803;28;20100;-73
2022/05/30 06:49:46;;;;;;;6.25;2.20;;;12.00;98.60;;;;;;5004616;28;20153;-73
2022/05/30 06:52:12;;;;;;;5.20;2.42;;;12.00;98.50;;;;;;5009933;28;20485;-74
2022/05/30 06:54:38;;;;;;;5.38;2.40;;;12.00;98.50;;;;;;4988153;28;20064;-73
2022/05/30 06:59:48;;;;;;;4.57;2.00;;;12.00;98.00;;;;;;5003509;28;20045;-73
2022/05/30 07:02:15;;;;;;;6.28;2.15;;;12.00;97.80;;;;;;5007564;28;20022;-73
2022/05/30 07:04:41;;;;;;;7.75;3.05;;;12.10;97.70;;;;;;5005589;28;20018;-74
2022/05/30 07:07:10;;;;;;;6.60;2.20;;;12.20;97.70;;;;;;5001223;28;20495;-74
2022/05/30 07:09:37;;;;;;;5.72;2.33;;;12.10;97.60;;;;;;4989716;28;20074;-74
2022/05/30 07:12:03;;;;;;;4.35;2.33;;;12.00;97.80;;;;;;5005449;28;20105;-73
2022/05/30 07:14:29;;;;;;;4.32;2.30;;;11.90;97.70;;;;;;5008112;28;20080;-74
2022/05/30 07:16:54;;;;;;;4.32;2.03;;;11.80;97.50;;;;;;5004616;28;20125;-73
2022/05/30 07:19:20;;;;;;;5.18;2.47;;;11.80;97.90;;;;;;5009644;28;20124;-74
2022/05/30 07:21:46;;;;;;;6.05;1.98;;;11.70;98.10;;;;;;5005615;28;20486;-73
2022/05/30 07:24:12;;;;;;;6.50;2.55;;;11.80;98.20;;;;;;4988787;28;20106;-72
2022/05/30 07:26:38;;;;;;;4.95;2.30;;;11.80;98.00;;;;;;5008597;28;20087;-73
2022/05/30 07:29:05;;;;;;;2.67;1.73;;;11.80;98.20;;;;;;4986898;28;20555;-73
2022/05/30 07:31:30;;;;;;;4.72;2.20;;;11.80;98.70;;;;;;5005477;28;20071;-73
2022/05/30 07:33:57;;;;;;;6.65;1.98;;;11.90;98.70;;;;;;4987017;28;20081;-74
2022/05/30 07:36:29;;;;;;;4.78;1.92;;;11.90;98.90;;;;;;5003657;28;20021;-74
2022/05/30 07:38:55;;;;;;;4.68;1.92;;;12.00;99.00;;;;;;5004280;28;20042;-74
2022/05/30 07:41:23;;;;;;;4.65;1.85;;;12.00;98.90;;;;;;5004308;28;20030;-75
2022/05/30 07:43:48;;;;;;;4.95;1.52;;;12.10;98.90;;;;;;5004125;28;20034;-74
2022/05/30 07:46:17;;;;;;;7.00;1.83;;;12.20;99.00;;;;;;5011470;28;20026;-75
2022/05/30 07:48:43;;;;;;;4.63;1.92;;;12.20;99.10;;;;;;5015293;28;20096;-76
2022/05/30 07:51:13;;;;;;;3.10;1.67;;;12.20;99.00;;;;;;5008085;28;20429;-74
2022/05/30 07:53:41;;;;;;;5.70;2.08;;;12.30;98.90;;;;;;5014267;28;20045;-74
2022/05/30 07:56:09;;;;;;;3.03;1.65;;;12.30;98.20;;;;;;5007301;28;20022;-74
2022/05/30 07:58:36;;;;;;;5.28;1.85;;;12.40;98.40;;;;;;5013662;28;20037;-75
2022/05/30 08:01:03;;;;;;;5.82;1.58;;;12.40;98.40;;;;;;5002420;28;20113;-75
2022/05/30 08:03:29;;;;;;;4.30;1.70;;;12.50;98.20;;;;;;5009716;28;20080;-75
2022/05/30 08:06:09;;;;;;;5.13;1.75;;;12.50;97.90;;;;;;5004554;28;21173;-75
2022/05/30 08:08:35;;;;;;;3.92;1.42;;;12.60;97.50;;;;;;5011769;28;20014;-75
2022/05/30 08:11:00;;;;;;;6.43;2.00;;;12.60;96.60;;;;;;5011732;28;20030;-75
2022/05/30 08:13:26;;;;;;;4.25;1.40;;;12.60;96.50;;;;;;4991821;28;20026;-74
2022/05/30 08:15:52;;;;;;;5.55;2.17;;;12.60;96.80;;;;;;5008706;28;20038;-75
2022/05/30 08:18:19;;;;;;;10.10;1.67;;;12.60;97.10;;;;;;5000555;28;20112;-76
2022/05/30 08:20:45;;;;;;;5.35;1.40;;;12.70;97.20;;;;;;5007952;28;20049;-75
2022/05/30 08:23:11;;;;;;;4.55;1.63;;;12.80;97.30;;;;;;4997694;28;20061;-76
2022/05/30 08:25:38;;;;;;;5.70;1.98;;;12.90;97.00;;;;;;5009185;28;20102;-74
2022/05/30 08:28:04;;;;;;;4.38;1.77;;;13.00;96.60;;;;;;5006515;28;20411;-73
2022/05/30 08:30:29;;;;;;;5.18;2.08;;;13.10;96.50;;;;;;4989941;28;20085;-76
2022/05/30 08:32:55;;;;;;;4.55;1.70;;;13.10;96.80;;;;;;4995465;28;20038;-73
2022/05/30 08:35:22;;;;;;;1.92;1.27;;;13.10;96.70;;;;;;5009410;28;20053;-74
2022/05/30 08:37:48;;;;;;;6.63;1.40;;;13.20;96.10;;;;;;5006859;28;20113;-72
2022/05/30 08:43:28;;;;;;;4.90;1.48;;;13.40;94.70;;;;;;5010389;28;20033;-75
2022/05/30 08:45:59;;;;;;;;;;;13.50;95.00;;;;;;5005054;28;20080;-75
2022/05/30 08:48:56;;;;;;;3.80;1.00;;;13.60;94.50;;;;;;5002920;28;19956;-75
2022/05/30 08:51:40;;;;;;;4.25;0.80;;;13.50;92.00;;;;;;4989677;28;20074;-74
2022/05/30 08:54:54;;;;;;;3.67;0.98;;;13.60;90.60;;;;;;5001482;28;20382;-74
2022/05/30 08:57:33;;;;;;;4.07;0.80;;;13.70;90.30;;;;;;5014400;28;20034;-75
2022/05/30 09:00:29;;;;;;;2.47;0.80;;;13.70;88.10;;;;;;5001096;28;20034;-75
2022/05/30 09:03:00;;;;;;;1.80;0.85;;;13.70;85.10;;;;;;5004500;28;20061;-75
2022/05/30 09:05:36;;;;;;;7.47;1.10;;;13.70;84.90;;;;;;4985285;28;20057;-74
2022/05/30 09:08:06;;;;;;;1.92;0.90;;;13.80;81.70;;;;;;4986795;28;20034;-75
2022/05/30 09:10:31;;;;;;;2.45;0.80;;;13.90;80.60;;;;;;5011653;28;20108;-75
2022/05/30 09:13:06;;;;;;;2.40;1.30;;;13.90;81.80;;;;;;5003019;28;20129;-75
2022/05/30 09:15:49;;;;;;;4.30;0.80;;;14.00;81.30;;;;;;5007985;28;20113;-75
2022/05/30 09:18:27;;;;;;;2.88;0.75;;;14.00;77.50;;;;;;4992536;28;20057;-74
2022/05/30 09:20:54;;;;;;;6.05;0.90;;;14.10;74.20;;;;;;5010528;28;20026;-75
2022/05/30 09:23:24;;;;;;;0.90;0.50;;;14.20;73.80;;;;;;4988715;28;20030;-74
2022/05/30 09:25:56;;;;;;;1.67;0.70;;;14.30;71.40;;;;;;5005196;28;20111;-74
2022/05/30 09:28:23;;;;;;;2.83;0.90;;;14.30;73.50;;;;;;5008024;28;20033;-74
2022/05/30 09:31:08;;;;;;;2.15;1.00;;;14.40;72.20;;;;;;5008134;28;20040;-74
2022/05/30 09:33:38;;;;;;;2.17;1.10;;;14.50;72.30;;;;;;5001165;28;20030;-75
2022/05/30 09:36:09;;;;;;;3.95;1.27;;;14.50;73.30;;;;;;5011682;28;20022;-72
2022/05/30 09:38:50;;;;;;;4.88;0.80;;;14.50;73.60;;;;;;4999435;28;20406;-74
2022/05/30 09:41:17;;;;;;;3.80;0.88;;;14.50;74.20;;;;;;5001220;28;20036;-74
2022/05/30 09:43:45;;;;;;;2.25;0.50;;;14.50;70.30;;;;;;5005502;28;20096;-72
2022/05/30 09:46:25;;;;;;;2.15;0.80;;;14.50;67.40;;;;;;4988586;28;20030;-75
2022/05/30 09:49:02;;;;;;;1.65;0.70;;;14.40;66.70;;;;;;5005531;28;20036;-74
2022/05/30 09:51:33;;;;;;;2.03;0.77;;;14.50;67.60;;;;;;4985933;28;20030;-73
2022/05/30 09:53:58;;;;;;;1.98;0.70;;;14.60;68.60;;;;;;5007292;28;20089;-74
2022/05/30 09:56:28;;;;;;;3.33;0.88;;;14.70;69.20;;;;;;4992695;28;20537;-74
2022/05/30 09:59:06;;;;;;;4.03;0.90;;;14.60;69.60;;;;;;5008990;28;20041;-74
2022/05/30 10:01:35;;;;;;;2.13;0.68;;;14.70;69.20;;;;;;5004235;28;20026;-73
2022/05/30 10:04:41;;;;;;;7.28;0.88;;;14.60;69.10;;;;;;4986698;28;20163;-74
2022/05/30 10:07:13;;;;;;;3.53;0.65;;;14.80;68.70;;;;;;4913153;29;20027;-73
2022/05/30 10:09:53;;;;;;;2.08;1.50;;;14.80;68.90;;;;;;4999055;28;20048;-74
2022/05/30 10:12:44;;;;;;;4.10;0.82;;;14.90;68.80;;;;;;4996046;28;20030;-74
2022/05/30 10:15:32;;;;;;;1.30;0.82;;;15.00;68.60;;;;;;5014871;28;20038;-74
2022/05/30 10:18:22;;;;;;;2.15;0.73;;;15.00;68.00;;;;;;5015436;28;20026;-74
2022/05/30 10:21:22;;;;;;;2.28;1.00;;;15.10;68.00;;;;;;5007052;28;20022;-74
2022/05/30 10:30:15;;;;;;;2.00;0.85;;;15.10;67.00;;;;;;5007444;28;20071;-74
2022/05/30 10:32:54;;;;;;;2.08;0.75;;;15.10;66.90;;;;;;5008873;28;20121;-78
2022/05/30 10:35:38;;;;;;;3.60;0.82;;;15.00;66.80;;;;;;4994121;28;20397;-74
2022/05/30 10:38:40;;;;;;;2.20;0.80;;;15.00;67.30;;;;;;5006760;28;20391;-74
2022/05/30 10:41:45;;;;;;;3.63;0.90;;;15.10;67.70;;;;;;4999219;28;20046;-76
2022/05/30 10:44:26;;;;;;;3.95;0.75;;;15.10;66.70;;;;;;4998266;28;20041;-74
2022/05/30 10:46:57;;;;;;;2.40;1.00;;;15.20;67.20;;;;;;5005950;28;20402;-74
2022/05/30 10:49:26;;;;;;;1.55;0.73;;;15.30;66.90;;;;;;5005527;28;20037;-75
2022/05/30 10:51:59;;;;;;;2.53;0.82;;;15.30;66.20;;;;;;5003274;28;20390;-75
2022/05/30 10:54:32;;;;;;;2.25;0.70;;;15.40;66.10;;;;;;5002648;28;20448;-74
2022/05/30 10:57:30;;;;;;;2.30;0.70;;;15.50;64.90;;;;;;5001365;28;20234;-75
2022/05/30 11:00:06;;;;;;;2.28;0.80;;;15.50;65.10;;;;;;4987321;28;20044;-74
2022/05/30 11:03:06;;;;;;;2.53;0.70;;;15.50;65.00;;;;;;5002672;28;20360;-75
2022/05/30 11:05:49;;;;;;;2.28;0.88;;;15.40;64.70;;;;;;4995801;28;20030;-75
2022/05/30 11:08:21;;;;;;;1.63;0.68;;;15.50;64.30;;;;;;5009369;28;20092;-74
2022/05/30 11:10:47;;;;;;;3.25;1.20;;;15.50;63.70;;;;;;5008292;28;20415;-75
2022/05/30 11:13:34;;;;;;;2.38;1.05;;;15.50;63.70;;;;;;4987277;28;20386;-75
2022/05/30 11:16:14;;;;;;;6.30;1.17;;;15.50;63.90;;;;;;4998907;28;20027;-73
2022/05/30 11:18:49;;;;;;;2.53;0.93;;;15.60;64.20;;;;;;5004113;28;20034;-75
2022/05/30 11:21:37;;;;;;;0.98;0.88;;;15.70;63.90;;;;;;5001525;28;20376;-74
2022/05/30 11:24:04;;;;;;;2.97;0.90;;;15.80;63.10;;;;;;5002535;28;20370;-73
2022/05/30 11:26:33;;;;;;;7.85;1.20;;;15.80;62.70;;;;;;5004305;28;20022;-73
2022/05/30 11:29:14;;;;;;;2.03;0.85;;;15.90;61.50;;;;;;5007178;28;20032;-73
2022/05/30 11:31:58;;;;;;;2.60;0.88;;;16.00;60.50;;;;;;5012761;28;20022;-73
2022/05/30 11:34:48;;;;;;;2.83;1.00;;;15.90;60.60;;;;;;5009927;28;20022;-73
2022/05/30 11:37:36;;;;;;;3.13;1.15;;;15.90;61.00;;;;;;5006967;28;20049;-73
2022/05/30 11:40:20;;;;;;;1.60;0.88;;;15.90;61.30;;;;;;5007660;28;20072;-74
2022/05/30 11:43:00;;;;;;;4.68;1.13;;;15.90;61.00;;;;;;5008631;28;20018;-75
2022/05/30 11:45:29;;;;;;;2.95;1.00;;;16.00;59.90;;;;;;5023293;28;20558;-75
2022/05/30 11:47:54;;;;;;;2.25;1.00;;;16.10;59.40;;;;;;4993835;28;20422;-75
2022/05/30 11:50:36;;;;;;;3.33;1.30;;;16.20;59.60;;;;;;4994408;28;20034;-75
2022/05/30 11:53:13;;;;;;;1.65;1.05;;;16.20;58.80;;;;;;5011273;28;20467;-75
2022/05/30 11:56:01;;;;;;;3.78;0.80;;;16.20;58.00;;;;;;4988708;28;20032;-75
2022/05/30 11:58:49;;;;;;;2.15;0.95;;;16.10;57.70;;;;;;5006828;28;20109;-75
2022/05/30 12:01:16;;;;;;;2.53;1.00;;;16.10;57.50;;;;;;5005622;28;20036;-73
2022/05/30 12:04:15;;;;;;;3.83;0.85;;;16.20;57.30;;;;;;5008316;28;20639;-75
2022/05/30 12:07:19;;;;;;;1.00;0.70;;;16.20;55.70;;;;;;4995823;28;20121;-73
2022/05/30 12:09:52;;;;;;;4.47;0.70;;;16.10;55.90;;;;;;5009935;28;20022;-74
2022/05/30 12:12:20;;;;;;;1.40;0.65;;;16.20;55.80;;;;;;5007543;28;20456;-73
2022/05/30 12:15:10;;;;;;;2.70;1.08;;;16.20;55.60;;;;;;5004602;28;20026;-74
2022/05/30 12:24:07;;;;;;;2.40;0.80;;;16.40;54.90;;;;;;5007033;28;20037;-73
2022/05/30 12:26:56;;;;;;;4.05;0.75;;;16.40;54.40;;;;;;4993003;28;20014;-74
2022/05/30 12:29:42;;;;;;;2.47;0.80;;;16.50;54.20;;;;;;5011876;28;20021;-74
2022/05/30 12:32:24;;;;;;;3.05;0.60;;;16.60;54.10;;;;;;5010787;28;20042;-75
2022/05/30 12:35:11;;;;;;;1.50;1.00;;;16.70;53.90;;;;;;4991909;28;20041;-74
2022/05/30 12:37:59;;;;;;;1.77;1.02;;;16.70;54.00;;;;;;4989251;28;20046;-74
2022/05/30 12:40:25;;;;;;;1.85;0.60;;;16.60;53.20;;;;;;5013862;28;20029;-74
2022/05/30 12:43:19;;;;;;;1.75;0.68;;;16.70;53.80;;;;;;4994538;28;20033;-74
2022/05/30 12:46:12;;;;;;;4.38;0.80;;;16.70;53.70;;;;;;4989693;28;20411;-75
2022/05/30 12:48:50;;;;;;;2.50;0.82;;;16.80;53.50;;;;;;5011180;28;20038;-75
2022/05/30 12:51:41;;;;;;;2.70;0.77;;;16.80;53.30;;;;;;4996004;28;20037;-75
2022/05/30 12:54:07;;;;;;;4.97;0.98;;;17.00;53.30;;;;;;5000291;28;20038;-75
2022/05/30 12:56:39;;;;;;;3.08;0.77;;;17.00;52.70;;;;;;5011190;28;20029;-72
2022/05/30 12:59:15;;;;;;;1.95;0.70;;;17.00;53.00;;;;;;5007579;28;20080;-75
2022/05/30 13:01:44;;;;;;;2.20;0.75;;;17.10;52.90;;;;;;5012232;28;20069;-75
2022/05/30 13:04:15;;;;;;;1.08;0.88;;;17.10;53.10;;;;;;5007937;28;20038;-73
2022/05/30 13:06:58;;;;;;;0.90;0.60;;;17.10;52.20;;;;;;4994787;28;20026;-75
2022/05/30 13:09:46;;;;;;;0.80;0.50;;;17.10;52.40;;;;;;5018256;28;20022;-72
2022/05/30 13:12:20;;;;;;;2.67;0.60;;;17.00;52.10;;;;;;5010690;28;20386;-73
2022/05/30 13:15:01;;;;;;;1.83;0.80;;;17.00;52.70;;;;;;5008542;28;20026;-73
2022/05/30 13:17:47;;;;;;;2.60;0.70;;;17.10;52.60;;;;;;5010837;28;20014;-73
2022/05/30 13:20:20;;;;;;;2.38;0.75;;;17.30;52.10;;;;;;4989862;28;20080;-74
2022/05/30 13:22:53;;;;;;;2.63;0.70;;;17.20;51.50;;;;;;5005959;28;20076;-73
2022/05/30 13:25:32;;;;;;;1.57;0.80;;;17.30;51.50;;;;;;5008542;28;20773;-74
2022/05/30 13:28:11;;;;;;;3.17;0.80;;;17.30;51.80;;;;;;5003439;28;20030;-75
2022/05/30 13:30:38;;;;;;;3.22;1.00;;;17.30;51.60;;;;;;5006376;28;20022;-73
2022/05/30 13:33:26;;;;;;;1.27;0.82;;;17.30;52.40;;;;;;4992321;28;20034;-74
2022/05/30 13:36:04;;;;;;;2.45;0.60;;;17.30;51.40;;;;;;4989411;28;20030;-74